Time;durP1;ratioP1;P1;durP2;ratioP2;P2;SDS_P1;SDS_P2;PMS_P1;PMS_P2;Temp;Humidity;BMP_temperature;BMP_pressure;BME280_temperature;BME280_humidity;BME280_pressure;Samples;Min_cycle;Max_cycle;Signal;HPM_P1;HPM_P2
2021/07/01 00:02:03;;;;;;;1.33;0.60;;;17.40;45.40;;;;;;10447360;28;20700;-71
2021/07/01 00:07:08;;;;;;;0.60;0.60;;;17.40;45.50;;;;;;10452933;28;20225;-70
2021/07/01 00:12:11;;;;;;;1.37;0.60;;;17.40;45.70;;;;;;10458370;28;20595;-69
2021/07/01 00:17:14;;;;;;;0.40;0.40;;;17.40;45.10;;;;;;10455945;28;20229;-69
2021/07/01 00:22:19;;;;;;;0.57;0.40;;;17.40;44.90;;;;;;10452850;28;20246;-69
2021/07/01 00:27:22;;;;;;;0.50;0.50;;;17.40;44.80;;;;;;10444725;28;20589;-69
2021/07/01 00:32:25;;;;;;;2.43;0.60;;;17.40;44.60;;;;;;10449395;28;20229;-69
2021/07/01 00:37:32;;;;;;;0.60;0.60;;;17.40;44.70;;;;;;10449568;28;20849;-69
2021/07/01 00:42:36;;;;;;;0.40;0.40;;;17.30;44.80;;;;;;10453908;28;20312;-69
2021/07/01 00:47:40;;;;;;;0.97;0.70;;;17.30;44.50;;;;;;10451439;28;20724;-69
2021/07/01 00:52:44;;;;;;;0.70;0.70;;;17.20;44.60;;;;;;10448037;28;20228;-69
2021/07/01 00:57:48;;;;;;;0.70;0.70;;;17.20;45.20;;;;;;10457894;28;20238;-69
2021/07/01 01:02:51;;;;;;;0.60;0.60;;;17.20;44.90;;;;;;10449868;28;20221;-69
2021/07/01 01:07:56;;;;;;;0.77;0.50;;;17.20;45.00;;;;;;10444612;28;20233;-69
2021/07/01 01:12:59;;;;;;;0.60;0.60;;;17.20;45.30;;;;;;10446504;28;20766;-69
2021/07/01 01:18:02;;;;;;;1.83;0.60;;;17.10;44.80;;;;;;10448830;28;20787;-70
2021/07/01 01:23:06;;;;;;;0.60;0.60;;;17.10;45.00;;;;;;10451256;28;20224;-69
2021/07/01 01:28:10;;;;;;;0.60;0.60;;;17.10;45.80;;;;;;10447501;28;20216;-69
2021/07/01 01:33:13;;;;;;;0.60;0.60;;;17.00;45.30;;;;;;10454077;28;20224;-69
2021/07/01 01:38:18;;;;;;;0.77;0.60;;;17.00;45.90;;;;;;10451191;28;20712;-69
2021/07/01 01:43:23;;;;;;;0.73;0.70;;;16.90;46.00;;;;;;10441228;28;20638;-69
2021/07/01 01:48:26;;;;;;;0.87;0.70;;;16.90;46.70;;;;;;10442925;28;20232;-69
2021/07/01 01:53:30;;;;;;;0.97;0.70;;;16.80;45.90;;;;;;10453321;28;20228;-69
2021/07/01 01:58:33;;;;;;;0.80;0.80;;;16.70;45.80;;;;;;10447496;28;20244;-69
2021/07/01 02:03:36;;;;;;;0.70;0.70;;;16.80;45.90;;;;;;10445805;28;20235;-69
2021/07/01 02:08:41;;;;;;;0.70;0.70;;;16.80;45.90;;;;;;10449964;28;20224;-69
2021/07/01 02:13:44;;;;;;;0.90;0.90;;;16.80;45.90;;;;;;10449639;28;20224;-69
2021/07/01 02:18:49;;;;;;;1.43;0.90;;;16.80;45.90;;;;;;10441874;28;20241;-69
2021/07/01 02:23:54;;;;;;;1.17;1.10;;;16.70;45.80;;;;;;10453022;28;20217;-74
2021/07/01 02:28:57;;;;;;;0.80;0.70;;;16.70;45.80;;;;;;10446380;28;20225;-74
2021/07/01 02:34:00;;;;;;;1.27;1.10;;;16.70;45.80;;;;;;10449191;28;20221;-75
2021/07/01 02:39:07;;;;;;;0.93;0.90;;;16.70;45.80;;;;;;10452437;28;20220;-74
2021/07/01 02:44:10;;;;;;;1.00;1.00;;;16.70;45.80;;;;;;10448575;28;20304;-74
2021/07/01 02:49:13;;;;;;;0.90;0.90;;;16.70;45.80;;;;;;10447164;28;20236;-74
2021/07/01 02:54:18;;;;;;;1.00;1.00;;;16.60;45.70;;;;;;10444367;28;20229;-74
2021/07/01 02:59:21;;;;;;;1.00;0.93;;;16.60;45.70;;;;;;10452280;28;20224;-74
2021/07/01 03:04:24;;;;;;;1.10;1.10;;;16.60;45.70;;;;;;10450326;28;20228;-74
2021/07/01 03:09:29;;;;;;;1.67;1.17;;;16.50;45.60;;;;;;10438815;28;20738;-74
2021/07/01 03:14:32;;;;;;;1.10;1.00;;;16.40;45.70;;;;;;10444470;28;20240;-74
2021/07/01 03:19:35;;;;;;;1.10;1.00;;;16.40;45.60;;;;;;10440941;28;20240;-74
2021/07/01 03:24:40;;;;;;;2.20;1.10;;;16.40;45.60;;;;;;10446986;28;20272;-74
2021/07/01 03:29:43;;;;;;;1.00;1.00;;;16.40;46.10;;;;;;10447246;28;20229;-74
2021/07/01 03:34:46;;;;;;;0.80;0.80;;;16.30;45.60;;;;;;10456961;28;20235;-74
2021/07/01 03:39:51;;;;;;;1.83;1.00;;;16.30;45.80;;;;;;10454513;28;20701;-74
2021/07/01 03:44:54;;;;;;;0.90;0.90;;;16.30;46.70;;;;;;10456328;28;20217;-74
2021/07/01 03:49:59;;;;;;;0.93;0.93;;;16.30;46.10;;;;;;10447037;28;20232;-74
2021/07/01 03:55:04;;;;;;;0.80;0.80;;;16.20;46.20;;;;;;10452160;28;20222;-74
2021/07/01 04:00:10;;;;;;;1.10;1.10;;;16.20;46.60;;;;;;10449176;28;20233;-74
2021/07/01 04:05:14;;;;;;;0.90;0.90;;;16.20;46.90;;;;;;10453601;28;20700;-74
2021/07/01 04:10:22;;;;;;;1.00;1.00;;;16.30;46.60;;;;;;10451460;28;20225;-74
2021/07/01 04:15:25;;;;;;;1.00;1.00;;;16.30;47.00;;;;;;10453762;28;20263;-73
2021/07/01 04:20:28;;;;;;;1.10;1.00;;;16.30;46.80;;;;;;10455814;28;20220;-74
2021/07/01 04:25:33;;;;;;;1.90;1.10;;;16.30;46.80;;;;;;10458315;28;20225;-74
2021/07/01 04:30:36;;;;;;;0.90;0.90;;;16.30;47.50;;;;;;10452219;28;20745;-74
2021/07/01 04:35:39;;;;;;;1.10;1.00;;;16.20;47.00;;;;;;10450658;28;20240;-74
2021/07/01 04:40:44;;;;;;;1.00;1.00;;;16.20;47.10;;;;;;10451278;28;20228;-73
2021/07/01 04:45:47;;;;;;;1.10;1.00;;;16.20;47.70;;;;;;10448037;28;20234;-74
2021/07/01 04:50:50;;;;;;;1.00;1.00;;;16.20;47.30;;;;;;10455007;28;20222;-74
2021/07/01 04:55:55;;;;;;;1.00;0.90;;;16.30;47.50;;;;;;10447543;28;20228;-74
2021/07/01 05:00:58;;;;;;;1.20;1.10;;;16.40;47.60;;;;;;10448922;28;20324;-74
2021/07/01 05:06:02;;;;;;;0.87;0.87;;;16.40;47.30;;;;;;10443588;28;20224;-74
2021/07/01 05:11:06;;;;;;;0.90;0.90;;;16.50;47.30;;;;;;10450567;28;20217;-73
2021/07/01 05:16:09;;;;;;;1.00;1.00;;;16.50;47.90;;;;;;10450256;28;20921;-73
2021/07/01 05:21:13;;;;;;;1.20;1.10;;;16.50;47.50;;;;;;10450057;28;20225;-74
2021/07/01 05:26:18;;;;;;;2.13;1.10;;;16.50;47.60;;;;;;10453447;28;20228;-74
2021/07/01 05:31:21;;;;;;;1.30;1.10;;;16.60;48.20;;;;;;10454156;28;20229;-74
2021/07/01 05:36:24;;;;;;;1.20;1.10;;;16.60;47.70;;;;;;10447528;28;20229;-73
2021/07/01 05:41:29;;;;;;;1.30;1.20;;;16.70;47.90;;;;;;10450215;28;20229;-74
2021/07/01 05:46:32;;;;;;;1.30;1.20;;;16.70;48.20;;;;;;10450495;28;20605;-74
2021/07/01 05:51:36;;;;;;;1.43;1.37;;;16.80;47.70;;;;;;10446890;28;20233;-74
2021/07/01 05:56:41;;;;;;;1.37;1.20;;;16.80;47.80;;;;;;10445227;28;20236;-74
2021/07/01 06:01:44;;;;;;;1.50;1.33;;;16.90;48.40;;;;;;10447263;28;20233;-72
2021/07/01 06:06:51;;;;;;;1.20;1.20;;;17.00;48.10;;;;;;10448545;28;20229;-73
2021/07/01 06:11:58;;;;;;;2.03;1.33;;;17.10;48.30;;;;;;10443577;28;20590;-73
2021/07/01 06:17:03;;;;;;;1.27;1.23;;;17.20;48.40;;;;;;10441402;28;20572;-73
2021/07/01 06:22:08;;;;;;;1.30;1.20;;;17.30;47.70;;;;;;10451024;28;20366;-73
2021/07/01 06:27:13;;;;;;;1.30;1.20;;;17.40;47.80;;;;;;10454050;28;20255;-68
2021/07/01 06:32:16;;;;;;;2.00;1.30;;;17.40;48.00;;;;;;10448793;28;20216;-68
2021/07/01 06:37:21;;;;;;;1.40;1.30;;;17.50;47.40;;;;;;10454302;28;20253;-67
2021/07/01 06:42:25;;;;;;;1.50;1.40;;;17.50;47.50;;;;;;10450133;28;20712;-67
2021/07/01 06:47:29;;;;;;;1.53;1.43;;;17.50;47.90;;;;;;10447232;28;20605;-68
2021/07/01 06:52:32;;;;;;;1.57;1.47;;;17.60;47.90;;;;;;10442026;28;20236;-68
2021/07/01 06:57:38;;;;;;;1.20;1.20;;;17.70;47.60;;;;;;10452974;28;20328;-68
2021/07/01 07:02:41;;;;;;;1.10;1.10;;;17.70;48.00;;;;;;10439546;28;20247;-67
2021/07/01 07:07:46;;;;;;;1.33;1.23;;;17.80;47.90;;;;;;10459021;28;20236;-68
2021/07/01 07:12:54;;;;;;;1.10;1.00;;;17.90;47.70;;;;;;10444146;28;20221;-67
2021/07/01 07:18:02;;;;;;;1.10;1.10;;;18.00;47.00;;;;;;10448108;28;20593;-68
2021/07/01 07:23:07;;;;;;;1.10;1.10;;;18.10;47.10;;;;;;10451496;28;20213;-68
2021/07/01 07:28:13;;;;;;;1.30;1.30;;;18.10;47.10;;;;;;10449627;28;20583;-68
2021/07/01 07:33:19;;;;;;;1.57;1.33;;;18.20;47.20;;;;;;10440827;28;20595;-67
2021/07/01 07:38:26;;;;;;;1.30;1.17;;;18.20;47.20;;;;;;10450682;28;20229;-68
2021/07/01 07:43:31;;;;;;;3.30;2.33;;;18.10;47.10;;;;;;10456512;28;20236;-67
2021/07/01 07:48:34;;;;;;;1.60;1.50;;;18.10;47.10;;;;;;10451308;28;20244;-68
2021/07/01 07:53:40;;;;;;;1.50;1.40;;;18.10;47.10;;;;;;10452960;28;20895;-67
2021/07/01 07:58:50;;;;;;;1.47;1.37;;;18.20;47.20;;;;;;10449462;28;20225;-68
2021/07/01 08:03:55;;;;;;;1.47;1.37;;;18.20;47.20;;;;;;10444650;28;20233;-68
2021/07/01 08:09:00;;;;;;;1.53;1.40;;;18.30;47.20;;;;;;10451624;28;20258;-68
2021/07/01 08:14:05;;;;;;;1.47;1.10;;;18.30;46.70;;;;;;10449953;28;20221;-68
2021/07/01 08:19:08;;;;;;;1.40;1.30;;;18.40;46.90;;;;;;10443609;28;20271;-68
2021/07/01 08:24:11;;;;;;;1.53;0.90;;;18.40;46.50;;;;;;10442575;28;20221;-68
2021/07/01 08:29:18;;;;;;;0.97;0.97;;;18.40;46.70;;;;;;10449895;28;20232;-68
2021/07/01 08:34:23;;;;;;;0.90;0.90;;;18.50;47.10;;;;;;10450077;28;20225;-68
2021/07/01 08:39:32;;;;;;;1.00;1.00;;;18.50;46.70;;;;;;10451027;28;20231;-68
2021/07/01 08:44:43;;;;;;;1.20;1.10;;;18.60;46.80;;;;;;10456575;28;20225;-68
2021/07/01 08:49:55;;;;;;;0.90;0.90;;;18.70;47.00;;;;;;10447395;28;20244;-68
2021/07/01 08:55:00;;;;;;;0.87;0.87;;;18.70;46.70;;;;;;10446542;28;20636;-68
2021/07/01 09:00:09;;;;;;;1.03;1.00;;;18.80;46.30;;;;;;10450133;28;20229;-68
2021/07/01 09:05:15;;;;;;;0.80;0.80;;;18.90;46.00;;;;;;10443246;28;20221;-68
2021/07/01 09:10:19;;;;;;;0.80;0.80;;;18.90;46.00;;;;;;10448427;28;20233;-68
2021/07/01 09:15:25;;;;;;;2.20;1.00;;;19.00;46.50;;;;;;10450486;28;20838;-68
2021/07/01 09:20:33;;;;;;;1.07;0.90;;;19.10;45.90;;;;;;10444910;28;20221;-69
2021/07/01 09:25:38;;;;;;;0.80;0.80;;;19.00;46.20;;;;;;10450572;28;20909;-69
2021/07/01 09:30:44;;;;;;;0.90;0.90;;;18.90;46.30;;;;;;10448820;28;20865;-68
2021/07/01 09:35:47;;;;;;;0.93;0.93;;;18.80;47.70;;;;;;10447333;28;20264;-68
2021/07/01 09:40:51;;;;;;;1.10;1.10;;;18.80;48.10;;;;;;10443800;28;20221;-68
2021/07/01 09:46:00;;;;;;;1.10;1.10;;;18.90;47.80;;;;;;10450812;28;20225;-69
2021/07/01 09:51:04;;;;;;;0.90;0.90;;;19.00;47.90;;;;;;10446506;28;20216;-68
2021/07/01 09:56:10;;;;;;;0.83;0.83;;;19.30;48.10;;;;;;10443956;28;20225;-68
2021/07/01 10:01:24;;;;;;;1.40;1.30;;;19.40;46.90;;;;;;10448250;28;20228;-68
2021/07/01 10:06:28;;;;;;;1.10;1.00;;;19.30;46.60;;;;;;10442188;28;20229;-68
2021/07/01 10:11:33;;;;;;;0.90;0.90;;;19.20;46.70;;;;;;10452500;28;20232;-68
2021/07/01 10:16:39;;;;;;;1.00;1.00;;;19.20;46.80;;;;;;10450008;28;20241;-68
2021/07/01 10:21:42;;;;;;;1.47;1.00;;;19.30;46.90;;;;;;10445467;28;20228;-68
2021/07/01 10:26:47;;;;;;;1.00;1.00;;;19.40;47.10;;;;;;10456070;28;20844;-68
2021/07/01 10:31:56;;;;;;;0.83;0.77;;;19.50;47.00;;;;;;10449142;28;20217;-69
2021/07/01 10:37:17;;;;;;;1.10;0.90;;;19.60;47.10;;;;;;10440581;28;20326;-68
2021/07/01 10:42:21;;;;;;;1.10;1.00;;;19.70;46.90;;;;;;10443755;28;20225;-68
2021/07/01 10:47:32;;;;;;;1.93;1.00;;;19.80;46.90;;;;;;10447837;28;20237;-68
2021/07/01 10:52:40;;;;;;;0.77;0.77;;;19.80;46.80;;;;;;10444454;28;20244;-67
2021/07/01 10:57:48;;;;;;;0.90;0.90;;;19.80;46.20;;;;;;10443956;28;20708;-68
2021/07/01 11:02:55;;;;;;;1.43;1.13;;;19.90;45.90;;;;;;10443396;28;20299;-67
2021/07/01 11:08:07;;;;;;;1.30;1.20;;;20.00;45.60;;;;;;10444406;28;20277;-67
2021/07/01 11:13:11;;;;;;;1.37;0.93;;;20.00;45.60;;;;;;10448538;28;20234;-67
2021/07/01 11:18:16;;;;;;;1.20;1.10;;;20.10;45.70;;;;;;10446753;28;20608;-67
2021/07/01 11:23:22;;;;;;;1.20;1.10;;;20.10;44.80;;;;;;10449495;28;20630;-67
2021/07/01 11:28:29;;;;;;;1.60;1.50;;;20.20;45.30;;;;;;10447491;28;20232;-67
2021/07/01 11:33:33;;;;;;;1.10;1.10;;;20.40;44.90;;;;;;10450624;28;20318;-68
2021/07/01 11:38:37;;;;;;;1.60;1.50;;;20.40;44.60;;;;;;10443889;28;20333;-68
2021/07/01 11:43:41;;;;;;;1.60;1.50;;;20.50;44.60;;;;;;10447030;28;20248;-68
2021/07/01 11:48:50;;;;;;;1.63;1.53;;;20.50;44.50;;;;;;10442033;28;20241;-68
2021/07/01 11:53:54;;;;;;;1.50;1.40;;;20.50;44.50;;;;;;10451380;28;20595;-68
2021/07/01 11:58:57;;;;;;;1.80;1.70;;;20.40;44.60;;;;;;10451903;28;20232;-68
2021/07/01 12:04:02;;;;;;;3.67;1.83;;;20.40;44.60;;;;;;10454737;28;20229;-68
2021/07/01 12:09:06;;;;;;;1.80;1.70;;;20.50;44.20;;;;;;10453894;28;20246;-67
2021/07/01 12:14:30;;;;;;;2.50;1.80;;;20.60;44.30;;;;;;10453508;28;20596;-68
2021/07/01 12:20:04;;;;;;;2.00;1.90;;;20.60;44.10;;;;;;10454172;28;20236;-68
2021/07/01 12:25:12;;;;;;;2.10;2.00;;;20.70;43.70;;;;;;10448903;28;20770;-68
2021/07/01 12:30:15;;;;;;;1.90;1.80;;;20.70;43.00;;;;;;10455427;28;20236;-68
2021/07/01 12:35:41;;;;;;;1.77;1.67;;;20.70;43.30;;;;;;10454136;28;20221;-68
2021/07/01 12:40:56;;;;;;;1.70;1.60;;;20.70;43.30;;;;;;10447503;28;20236;-68
2021/07/01 12:45:59;;;;;;;1.60;1.50;;;20.70;42.90;;;;;;10448691;28;20229;-68
2021/07/01 12:51:44;;;;;;;1.63;1.53;;;20.70;43.60;;;;;;10452064;28;20224;-69
2021/07/01 12:56:49;;;;;;;1.57;1.47;;;20.80;43.30;;;;;;10449597;28;20267;-68
2021/07/01 13:01:56;;;;;;;1.60;1.50;;;20.90;43.70;;;;;;10451910;28;20236;-68
2021/07/01 13:07:01;;;;;;;1.60;1.50;;;21.00;43.20;;;;;;10445912;28;20232;-68
2021/07/01 13:12:06;;;;;;;1.50;1.40;;;21.20;42.80;;;;;;10454049;28;20222;-68
2021/07/01 13:17:11;;;;;;;1.60;1.50;;;21.40;42.40;;;;;;10451981;28;20225;-68
2021/07/01 13:22:17;;;;;;;1.47;1.40;;;21.40;41.90;;;;;;10450568;28;20225;-68
2021/07/01 13:27:36;;;;;;;1.67;1.57;;;21.40;41.20;;;;;;10451775;28;20273;-68
2021/07/01 13:32:41;;;;;;;1.30;1.23;;;21.40;39.40;;;;;;10440004;28;20248;-68
2021/07/01 13:37:48;;;;;;;5.20;1.73;;;21.30;41.50;;;;;;10445160;28;20236;-68
2021/07/01 13:42:53;;;;;;;1.87;1.40;;;21.30;39.70;;;;;;10450482;28;20240;-67
2021/07/01 13:47:58;;;;;;;1.43;1.40;;;21.40;40.50;;;;;;10449658;28;20232;-68
2021/07/01 13:53:04;;;;;;;1.57;1.40;;;21.40;40.40;;;;;;10442428;28;20229;-68
2021/07/01 13:58:10;;;;;;;1.50;1.40;;;21.40;39.80;;;;;;10446962;28;20225;-68
2021/07/01 14:03:16;;;;;;;1.57;1.47;;;21.50;40.50;;;;;;10447567;28;20221;-68
2021/07/01 14:08:26;;;;;;;1.60;1.50;;;21.60;40.30;;;;;;10453784;28;20225;-67
2021/07/01 14:13:32;;;;;;;3.57;1.70;;;21.70;40.00;;;;;;10454516;28;20677;-68
2021/07/01 14:18:36;;;;;;;2.10;1.47;;;21.80;40.60;;;;;;10450837;28;20743;-68
2021/07/01 14:23:41;;;;;;;1.70;1.60;;;21.90;40.70;;;;;;10447615;28;20607;-68
2021/07/01 14:28:45;;;;;;;1.53;1.40;;;22.00;40.10;;;;;;10443219;28;20228;-68
2021/07/01 14:33:57;;;;;;;1.83;1.57;;;21.90;40.10;;;;;;10447790;28;20225;-68
2021/07/01 14:39:06;;;;;;;1.33;1.23;;;21.80;39.70;;;;;;10436660;28;20275;-68
2021/07/01 14:44:12;;;;;;;1.77;1.27;;;21.80;39.80;;;;;;10449925;28;20228;-68
2021/07/01 14:49:18;;;;;;;1.47;1.37;;;21.60;39.90;;;;;;10450633;28;20236;-68
2021/07/01 14:54:24;;;;;;;1.53;1.30;;;21.50;39.50;;;;;;10449129;28;20225;-68
2021/07/01 14:59:47;;;;;;;1.10;1.10;;;21.30;40.00;;;;;;10453957;28;20221;-68
2021/07/01 15:04:50;;;;;;;1.40;1.30;;;21.10;40.10;;;;;;10450195;28;20230;-68
2021/07/01 15:09:56;;;;;;;1.20;1.20;;;21.10;41.20;;;;;;10442433;28;20232;-68
2021/07/01 15:14:59;;;;;;;1.10;1.10;;;21.20;40.70;;;;;;10451628;28;20231;-68
2021/07/01 15:20:05;;;;;;;1.10;1.10;;;21.30;40.90;;;;;;10442744;28;20217;-68
2021/07/01 15:25:11;;;;;;;1.53;1.43;;;21.40;40.10;;;;;;10443219;28;20222;-68
2021/07/01 15:30:18;;;;;;;1.33;1.30;;;21.30;38.50;;;;;;10459528;28;20225;-68
2021/07/01 15:35:21;;;;;;;1.60;1.50;;;21.20;39.10;;;;;;10446621;28;20262;-68
2021/07/01 15:40:26;;;;;;;1.40;1.23;;;21.10;39.20;;;;;;10451118;28;20229;-68
2021/07/01 15:45:29;;;;;;;2.10;1.57;;;21.00;38.90;;;;;;10453897;28;20229;-68
2021/07/01 15:50:33;;;;;;;1.50;1.40;;;21.00;39.30;;;;;;10453402;28;20235;-68
2021/07/01 15:55:38;;;;;;;1.63;1.53;;;20.90;39.30;;;;;;10445447;28;20234;-68
2021/07/01 16:00:42;;;;;;;1.40;1.30;;;20.90;39.50;;;;;;10445568;28;20572;-68
2021/07/01 16:05:47;;;;;;;1.57;1.47;;;21.00;39.90;;;;;;10451440;28;20241;-68
2021/07/01 16:10:52;;;;;;;1.37;1.30;;;21.10;39.70;;;;;;10449381;28;20715;-68
2021/07/01 16:15:55;;;;;;;1.33;1.23;;;21.10;39.50;;;;;;10452544;28;20220;-68
2021/07/01 16:20:59;;;;;;;1.10;1.10;;;21.10;39.50;;;;;;10444920;28;20709;-69
2021/07/01 16:26:09;;;;;;;1.10;1.10;;;21.10;39.70;;;;;;10455689;28;20221;-69
2021/07/01 16:31:12;;;;;;;1.40;1.20;;;21.20;39.70;;;;;;10460170;28;20220;-69
2021/07/01 16:36:16;;;;;;;1.47;1.37;;;21.20;39.60;;;;;;10449105;28;20260;-68
2021/07/01 16:41:21;;;;;;;2.77;1.40;;;21.20;39.20;;;;;;10453076;28;20998;-68
2021/07/01 16:46:28;;;;;;;1.70;1.60;;;21.10;38.80;;;;;;10455982;28;20231;-69
2021/07/01 16:51:34;;;;;;;1.80;1.70;;;21.00;39.00;;;;;;10453077;28;20232;-69
2021/07/01 16:56:49;;;;;;;1.53;1.43;;;20.90;39.10;;;;;;10443687;28;20316;-68
2021/07/01 17:01:55;;;;;;;1.87;1.77;;;20.90;39.00;;;;;;10451378;28;21179;-69
2021/07/01 17:06:59;;;;;;;2.33;2.13;;;20.90;39.20;;;;;;10445495;28;20253;-68
2021/07/01 17:12:04;;;;;;;2.70;2.50;;;20.80;39.30;;;;;;10451941;28;20218;-68
2021/07/01 17:17:10;;;;;;;2.40;2.20;;;20.80;39.20;;;;;;10433820;28;20228;-68
2021/07/01 17:22:16;;;;;;;2.40;2.20;;;20.70;39.60;;;;;;10441903;28;20227;-68
2021/07/01 17:27:22;;;;;;;2.03;1.90;;;20.60;39.50;;;;;;10442159;28;20232;-68
2021/07/01 17:32:26;;;;;;;2.33;1.90;;;20.60;39.50;;;;;;10447856;28;20235;-68
2021/07/01 17:37:30;;;;;;;2.07;1.90;;;20.60;39.90;;;;;;10452893;28;20224;-67
2021/07/01 17:42:34;;;;;;;2.00;1.90;;;20.60;39.80;;;;;;10451384;28;20780;-67
2021/07/01 17:47:40;;;;;;;2.10;1.90;;;20.60;39.70;;;;;;10447505;28;20282;-67
2021/07/01 17:52:43;;;;;;;2.30;2.10;;;20.50;39.70;;;;;;10446424;28;20224;-67
2021/07/01 17:57:53;;;;;;;3.17;2.43;;;20.50;39.90;;;;;;10447277;28;20300;-67
2021/07/01 18:02:56;;;;;;;3.90;3.23;;;20.50;39.30;;;;;;10448453;28;20225;-68
2021/07/01 18:08:00;;;;;;;3.70;3.40;;;20.50;38.80;;;;;;10445191;28;20735;-67
2021/07/01 18:13:05;;;;;;;3.17;2.97;;;20.40;38.60;;;;;;10446007;28;20235;-68
2021/07/01 18:18:09;;;;;;;3.63;3.33;;;20.30;38.70;;;;;;10447696;28;20232;-67
2021/07/01 18:23:12;;;;;;;4.17;3.57;;;20.20;39.00;;;;;;10440754;28;20220;-68
2021/07/01 18:28:16;;;;;;;3.80;3.40;;;20.10;39.40;;;;;;10446041;28;20233;-68
2021/07/01 18:33:20;;;;;;;3.93;3.30;;;20.10;39.70;;;;;;10438479;28;20212;-68
2021/07/01 18:38:25;;;;;;;3.97;3.67;;;20.00;39.70;;;;;;10442548;28;20232;-68
2021/07/01 18:43:30;;;;;;;3.50;3.20;;;20.00;39.70;;;;;;10439409;28;20229;-68
2021/07/01 18:48:33;;;;;;;4.27;3.87;;;20.00;39.90;;;;;;10440871;28;20236;-68
2021/07/01 18:53:37;;;;;;;3.70;3.40;;;20.00;40.00;;;;;;10438798;28;20233;-68
2021/07/01 18:58:41;;;;;;;3.90;3.60;;;20.00;40.00;;;;;;10442017;28;20224;-69
2021/07/01 19:03:45;;;;;;;4.67;3.83;;;19.90;39.80;;;;;;10452406;28;20752;-68
2021/07/01 19:08:49;;;;;;;3.80;3.50;;;19.90;39.90;;;;;;10460570;28;20232;-68
2021/07/01 19:13:53;;;;;;;3.90;3.60;;;19.70;40.60;;;;;;10456050;28;20228;-68
2021/07/01 19:18:57;;;;;;;4.57;3.93;;;19.70;40.00;;;;;;10455989;28;20228;-68
2021/07/01 19:24:01;;;;;;;3.40;3.10;;;19.60;40.10;;;;;;10443562;28;20228;-68
2021/07/01 19:29:05;;;;;;;3.90;3.60;;;19.50;40.30;;;;;;10450393;28;20228;-68
2021/07/01 19:34:09;;;;;;;4.33;3.93;;;19.40;40.70;;;;;;10443355;28;20221;-68
2021/07/01 19:39:14;;;;;;;3.80;3.50;;;19.30;40.60;;;;;;10447576;28;20227;-68
2021/07/01 19:44:20;;;;;;;4.47;3.70;;;19.20;40.80;;;;;;10441119;28;20307;-69
2021/07/01 19:49:23;;;;;;;4.10;3.70;;;19.10;41.30;;;;;;10442911;28;21029;-68
2021/07/01 19:54:27;;;;;;;4.27;3.87;;;19.10;41.00;;;;;;10449641;28;20225;-68
2021/07/01 19:59:32;;;;;;;4.27;3.87;;;19.10;41.20;;;;;;10449832;28;20717;-68
2021/07/01 20:04:35;;;;;;;4.67;3.70;;;19.10;41.50;;;;;;10451599;28;20709;-68
2021/07/01 20:09:38;;;;;;;5.27;4.77;;;19.00;41.30;;;;;;10452027;28;20239;-69
2021/07/01 20:14:43;;;;;;;4.80;4.33;;;18.90;41.60;;;;;;10451795;28;20439;-68
2021/07/01 20:19:46;;;;;;;4.17;3.87;;;18.90;42.10;;;;;;10456246;28;20248;-68
2021/07/01 20:24:50;;;;;;;4.50;4.10;;;18.80;41.80;;;;;;10453823;28;20221;-68
2021/07/01 20:29:55;;;;;;;5.07;4.10;;;18.80;42.00;;;;;;10455192;28;20220;-69
2021/07/01 20:34:58;;;;;;;4.77;4.23;;;18.80;42.30;;;;;;10450801;28;20217;-68
2021/07/01 20:40:02;;;;;;;6.90;4.50;;;18.70;42.10;;;;;;10441809;28;21083;-70
2021/07/01 20:45:08;;;;;;;5.27;4.40;;;18.70;42.20;;;;;;10451487;28;20232;-68
2021/07/01 20:50:12;;;;;;;4.17;3.83;;;18.70;42.60;;;;;;10448297;28;20217;-69
2021/07/01 20:55:17;;;;;;;4.53;3.93;;;18.70;42.40;;;;;;10453746;28;20752;-68
2021/07/01 21:00:23;;;;;;;4.57;4.17;;;18.70;42.50;;;;;;10454944;28;20244;-68
2021/07/01 21:05:26;;;;;;;4.00;3.60;;;18.60;42.40;;;;;;10454951;28;20808;-68
2021/07/01 21:10:32;;;;;;;4.30;3.90;;;18.60;42.20;;;;;;10452060;28;20603;-68
2021/07/01 21:15:38;;;;;;;5.03;3.97;;;18.60;42.40;;;;;;10450135;28;20239;-68
2021/07/01 21:20:42;;;;;;;4.33;3.83;;;18.60;42.40;;;;;;10446328;28;20243;-68
2021/07/01 21:25:46;;;;;;;4.03;3.73;;;18.70;42.30;;;;;;10445868;28;20224;-68
2021/07/01 21:30:51;;;;;;;4.13;3.73;;;18.70;42.30;;;;;;10451203;28;20567;-68
2021/07/01 21:35:57;;;;;;;5.20;3.57;;;18.70;42.40;;;;;;10457938;28;20230;-68
2021/07/01 21:41:03;;;;;;;4.37;3.70;;;18.80;42.50;;;;;;10451703;28;20230;-68
2021/07/01 21:46:09;;;;;;;4.40;3.83;;;18.80;42.40;;;;;;10444582;28;20220;-68
2021/07/01 21:51:12;;;;;;;4.50;4.10;;;18.80;42.50;;;;;;10450856;28;20252;-68
2021/07/01 21:56:17;;;;;;;4.80;4.30;;;18.70;42.10;;;;;;10448246;28;20225;-68
2021/07/01 22:01:23;;;;;;;4.30;4.00;;;18.70;42.40;;;;;;10448798;28;20229;-68
2021/07/01 22:06:26;;;;;;;5.60;4.17;;;18.60;42.60;;;;;;10445798;28;20231;-68
2021/07/01 22:11:34;;;;;;;5.90;4.47;;;18.50;42.40;;;;;;10458672;28;20228;-68
2021/07/01 22:16:40;;;;;;;5.00;4.60;;;18.40;42.60;;;;;;10459224;28;20239;-68
2021/07/01 22:21:43;;;;;;;5.73;4.40;;;18.40;43.00;;;;;;10448346;28;20233;-69
2021/07/01 22:26:47;;;;;;;4.57;4.17;;;18.20;42.70;;;;;;10448006;28;20225;-68
2021/07/01 22:31:52;;;;;;;4.70;4.30;;;18.20;42.90;;;;;;10445730;28;20229;-68
2021/07/01 22:36:55;;;;;;;4.60;4.03;;;18.10;43.10;;;;;;10444017;28;20256;-68
2021/07/01 22:41:59;;;;;;;4.97;4.50;;;18.10;42.90;;;;;;10452801;28;20232;-67
2021/07/01 22:47:04;;;;;;;4.50;4.10;;;18.10;43.00;;;;;;10413827;28;20232;-68
2021/07/01 22:52:08;;;;;;;4.97;4.47;;;18.10;43.30;;;;;;10408097;28;20283;-67
2021/07/01 22:57:11;;;;;;;4.47;4.00;;;18.10;43.30;;;;;;10413547;28;20721;-68
2021/07/01 23:02:16;;;;;;;4.50;4.10;;;18.10;43.30;;;;;;10407177;28;20222;-68
2021/07/01 23:07:19;;;;;;;4.30;3.87;;;18.10;43.50;;;;;;10412459;28;20874;-68
2021/07/01 23:12:22;;;;;;;4.97;4.57;;;18.20;43.20;;;;;;10452680;28;20229;-68
2021/07/01 23:17:27;;;;;;;4.90;4.43;;;18.20;43.10;;;;;;10447360;28;20658;-68
2021/07/01 23:22:30;;;;;;;4.40;4.00;;;18.20;43.40;;;;;;10448573;28;20243;-68
2021/07/01 23:27:35;;;;;;;4.57;4.20;;;18.20;43.20;;;;;;10451802;28;20233;-68
2021/07/01 23:32:39;;;;;;;4.70;4.30;;;18.20;43.10;;;;;;10438313;28;20233;-68
2021/07/01 23:37:43;;;;;;;6.83;3.93;;;18.30;43.40;;;;;;10447340;28;20260;-68
2021/07/01 23:42:47;;;;;;;4.87;4.27;;;18.30;43.30;;;;;;10442520;28;20228;-68
2021/07/01 23:47:51;;;;;;;6.57;3.80;;;18.30;43.30;;;;;;10451348;28;20229;-67
2021/07/01 23:52:54;;;;;;;4.43;4.03;;;18.30;43.80;;;;;;10455901;28;20235;-68
2021/07/01 23:57:58;;;;;;;4.77;4.00;;;18.40;43.60;;;;;;10456105;28;20236;-68
